createdAt,value
2019-01-25T00:04:46.646Z,8.5
2019-01-25T00:09:58.571Z,7.5
2019-01-25T00:14:54.965Z,7.9
2019-01-25T00:19:59.961Z,7.9
2019-01-25T00:21:23.851Z,7.9
2019-01-25T00:26:29.872Z,8.4
2019-01-25T00:31:35.495Z,8.5
2019-01-25T00:36:40.998Z,8
2019-01-25T00:41:46.005Z,8.5
2019-01-25T00:46:51.525Z,8.4
2019-01-25T00:51:56.834Z,7.5
2019-01-25T00:57:01.972Z,8.4
2019-01-25T01:02:06.942Z,8.8
2019-01-25T01:07:12.225Z,7.9
2019-01-25T01:12:17.315Z,8.7
2019-01-25T01:17:23.005Z,7.4
2019-01-25T01:22:28.060Z,7.4
2019-01-25T01:27:33.263Z,8.5
2019-01-25T01:32:38.250Z,8.4
2019-01-25T01:37:44.557Z,7.9
2019-01-25T01:42:50.117Z,7.7
2019-01-25T01:47:55.869Z,7.8
2019-01-25T01:53:02.090Z,7.7
2019-01-25T01:58:07.161Z,7.9
2019-01-25T02:03:11.363Z,9.2
2019-01-25T02:08:17.254Z,8.1
2019-01-25T02:13:22.304Z,8
2019-01-25T02:18:27.361Z,7.4
2019-01-25T02:23:32.895Z,8.4
2019-01-25T02:28:38.141Z,7.5
2019-01-25T02:33:43.269Z,7.6
2019-01-25T02:38:49.247Z,11.4
2019-01-25T02:43:55.012Z,6.7
2019-01-25T02:49:01.163Z,7.8
2019-01-25T02:54:07.292Z,7.4
2019-01-25T02:59:13.392Z,7.9
2019-01-25T03:04:18.856Z,7.8
2019-01-25T03:09:24.453Z,7.5
2019-01-25T03:14:29.939Z,7.3
2019-01-25T03:19:35.742Z,7.4
2019-01-25T03:24:41.721Z,7.8
2019-01-25T03:29:47.556Z,8.4
2019-01-25T03:34:53.620Z,7.4
2019-01-25T03:39:58.858Z,7.4
2019-01-25T03:45:04.480Z,7.5
2019-01-25T03:50:10.539Z,8.7
2019-01-25T03:55:16.597Z,7.8
2019-01-25T04:00:21.718Z,7.5
2019-01-25T04:05:27.176Z,7.3
2019-01-25T04:10:33.020Z,8
2019-01-25T04:15:38.461Z,8.3
2019-01-25T04:20:43.253Z,7.7
2019-01-25T04:25:48.513Z,8.4
2019-01-25T04:30:54.142Z,8.6
2019-01-25T04:35:59.424Z,7.2
2019-01-25T04:41:11.403Z,7.7
2019-01-25T04:46:06.381Z,7.4
2019-01-25T04:51:11.777Z,8
2019-01-25T04:56:15.553Z,9.1
2019-01-25T05:01:20.848Z,7.8
2019-01-25T05:06:25.139Z,6.5
2019-01-25T05:11:31.494Z,6.5
2019-01-25T05:16:36.629Z,7.1
2019-01-25T05:21:43.305Z,7.9
2019-01-25T05:26:48.601Z,7.7
2019-01-25T05:31:53.710Z,8.4
2019-01-25T05:36:59.462Z,13.2
2019-01-25T05:42:04.743Z,14.1
2019-01-25T05:47:10.431Z,15.8
2019-01-25T05:52:15.569Z,12.8
2019-01-25T05:57:21.212Z,10.9
2019-01-25T06:02:26.879Z,14.1
2019-01-25T06:07:32.000Z,11.9
2019-01-25T06:12:37.736Z,13
2019-01-25T06:17:43.242Z,9
2019-01-25T06:22:48.921Z,11
2019-01-25T06:27:54.130Z,10.6
2019-01-25T06:33:00.284Z,11.6
2019-01-25T06:38:08.378Z,8.7
2019-01-25T06:43:16.466Z,11
2019-01-25T06:48:23.321Z,11
2019-01-25T06:53:29.188Z,13.6
2019-01-25T06:58:34.489Z,7.7
2019-01-25T07:03:40.853Z,12.5
2019-01-25T07:08:44.557Z,9.1
2019-01-25T07:13:48.332Z,9.2
2019-01-25T07:18:57.344Z,8.8
2019-01-25T07:24:02.898Z,9.3
2019-01-25T07:29:09.217Z,8.4
2019-01-25T07:34:15.613Z,8.6
2019-01-25T07:39:21.090Z,7.8
2019-01-25T07:44:27.249Z,7.7
2019-01-25T07:49:33.380Z,7.5
2019-01-25T07:54:39.482Z,6.5
2019-01-25T07:59:44.589Z,7.5
2019-01-25T08:04:50.393Z,7.1
2019-01-25T08:09:56.206Z,5.6
2019-01-25T08:15:02.158Z,6.1
2019-01-25T08:20:08.517Z,7.9
2019-01-25T08:25:08.612Z,5.2
2019-01-25T08:30:13.697Z,5
2019-01-25T08:35:18.494Z,5.5
2019-01-25T08:40:26.947Z,4.9
2019-01-25T08:45:31.493Z,7.3
2019-01-25T08:50:37.783Z,5.5
2019-01-25T08:55:43.838Z,5
2019-01-25T09:00:49.187Z,4.9
2019-01-25T09:05:58.996Z,5.4
2019-01-25T09:11:04.142Z,4.9
2019-01-25T09:16:08.399Z,5.4
2019-01-25T09:21:14.131Z,7.7
2019-01-25T09:26:19.834Z,10.9
2019-01-25T09:31:23.204Z,7.6
2019-01-25T09:36:29.200Z,9.7
2019-01-25T09:41:34.940Z,7.7
2019-01-25T09:46:40.739Z,8.9
2019-01-25T09:51:45.173Z,10.1
2019-01-25T09:56:50.985Z,9.9
2019-01-25T10:02:00.826Z,9.5
2019-01-25T10:07:04.476Z,7.4
2019-01-25T10:12:09.622Z,7.6
2019-01-25T10:17:15.408Z,6.8
2019-01-25T10:22:20.857Z,7.2
2019-01-25T10:27:26.093Z,7.4
2019-01-25T10:32:31.241Z,7.8
2019-01-25T10:37:36.534Z,7.4
2019-01-25T10:42:44.363Z,9
2019-01-25T10:47:48.362Z,7.3
2019-01-25T10:52:53.296Z,7.7
2019-01-25T10:57:58.563Z,7.3
2019-01-25T11:03:03.477Z,6.7
2019-01-25T11:08:09.519Z,6.4
2019-01-25T11:13:15.128Z,5.9
2019-01-25T11:18:20.318Z,6.2
2019-01-25T11:23:26.105Z,6.6
2019-01-25T11:28:31.493Z,6
2019-01-25T11:33:36.618Z,5.2
2019-01-25T11:38:42.548Z,5.9
2019-01-25T11:43:47.671Z,5.9
2019-01-25T11:48:53.107Z,5.6
2019-01-25T11:53:59.104Z,7.4
2019-01-25T11:59:04.740Z,6
2019-01-25T12:04:09.908Z,6.4
2019-01-25T12:09:15.085Z,6.8
2019-01-25T12:14:20.477Z,6.8
2019-01-25T12:19:26.497Z,6
2019-01-25T12:24:32.625Z,9.6
2019-01-25T12:29:37.585Z,10.9
2019-01-25T12:34:43.662Z,7
2019-01-25T12:39:49.603Z,7.5
2019-01-25T12:44:54.699Z,5.7
2019-01-25T12:50:00.569Z,7.5
2019-01-25T12:55:06.395Z,5.4
2019-01-25T13:00:12.567Z,5.8
2019-01-25T13:05:17.459Z,6.3
2019-01-25T13:10:21.682Z,5.3
2019-01-25T13:15:27.125Z,4.8
2019-01-25T13:20:32.240Z,5.8
2019-01-25T13:25:33.131Z,5.3
2019-01-25T13:30:38.692Z,5.9
2019-01-25T13:35:44.000Z,5.8
2019-01-25T13:40:49.384Z,7.1
2019-01-25T13:45:55.010Z,5.8
2019-01-25T13:51:02.448Z,7.1
2019-01-25T13:56:06.026Z,6.5
2019-01-25T14:01:10.155Z,6.1
2019-01-25T14:06:15.846Z,4.9
2019-01-25T14:11:21.168Z,9.2
2019-01-25T14:16:26.719Z,5.4
2019-01-25T14:21:32.406Z,7.8
2019-01-25T14:26:37.454Z,7
2019-01-25T14:31:42.650Z,6.2
2019-01-25T14:36:48.237Z,6.3
2019-01-25T14:41:53.995Z,13.7
2019-01-25T14:46:59.678Z,9.5
2019-01-25T14:52:05.533Z,10.7
2019-01-25T14:57:10.046Z,8.4
2019-01-25T15:02:15.675Z,8.3
2019-01-25T15:07:21.628Z,18.6
2019-01-25T15:12:26.734Z,10.6
2019-01-25T15:17:32.462Z,9.3
2019-01-25T15:22:38.475Z,9.9
2019-01-25T15:27:43.500Z,10.1
2019-01-25T15:32:48.651Z,9.5
2019-01-25T15:37:52.837Z,11.2
2019-01-25T15:42:58.082Z,9.5
2019-01-25T15:48:03.756Z,8.4
2019-01-25T15:53:09.864Z,10.7
2019-01-25T15:58:16.169Z,8.5
2019-01-25T16:03:21.990Z,13.4
2019-01-25T16:08:27.102Z,15.3
2019-01-25T16:13:33.039Z,19.9
2019-01-25T16:18:38.177Z,13.4
2019-01-25T16:23:43.909Z,11.7
2019-01-25T16:28:48.215Z,11
2019-01-25T16:33:53.977Z,11.7
2019-01-25T16:38:59.127Z,9.1
2019-01-25T16:44:03.596Z,11.5
2019-01-25T16:49:13.337Z,13
2019-01-25T16:54:19.044Z,19.4
2019-01-25T16:59:24.076Z,10.9
2019-01-25T17:04:29.761Z,17.2
2019-01-25T17:09:36.628Z,10.3
2019-01-25T17:14:42.411Z,12.9
2019-01-25T17:19:42.391Z,10.6
2019-01-25T17:24:49.828Z,12
2019-01-25T17:29:55.065Z,15.7
2019-01-25T17:35:00.281Z,13.7
2019-01-25T17:40:03.594Z,13.2
2019-01-25T17:45:08.953Z,16.2
2019-01-25T17:50:14.053Z,10.9
2019-01-25T17:55:19.555Z,9.8
2019-01-25T18:00:25.732Z,8.8
2019-01-25T18:05:25.691Z,9.3
2019-01-25T18:10:30.598Z,8.9
2019-01-25T18:15:36.641Z,9.6
2019-01-25T18:20:41.611Z,13.3
2019-01-25T18:25:48.622Z,12.9
2019-01-25T18:30:53.618Z,14.2
2019-01-25T18:36:34.590Z,68.8
2019-01-25T18:41:39.688Z,65.5
2019-01-25T18:46:45.320Z,58.6
2019-01-25T18:51:51.704Z,55.5
2019-01-25T18:56:54.860Z,50.8
2019-01-25T19:02:01.189Z,48.9
2019-01-25T19:07:07.104Z,47
2019-01-25T19:12:12.270Z,42.8
2019-01-25T19:17:16.690Z,43.2
2019-01-25T19:22:21.867Z,36.3
2019-01-25T19:27:27.124Z,27.8
2019-01-25T19:32:33.757Z,27.9
2019-01-25T19:37:39.868Z,19.7
2019-01-25T19:42:45.798Z,16.2
2019-01-25T19:47:52.364Z,14.6
2019-01-25T19:52:56.760Z,14.1
2019-01-25T19:58:03.817Z,15.1
2019-01-25T20:03:09.636Z,10.3
2019-01-25T20:08:15.617Z,11.1
2019-01-25T20:13:21.350Z,9.1
2019-01-25T20:18:26.742Z,12.3
2019-01-25T20:23:32.401Z,7.4
2019-01-25T20:28:40.429Z,10.6
2019-01-25T20:33:45.849Z,8.9
2019-01-25T20:38:50.775Z,9.9
2019-01-25T20:43:57.556Z,9.8
2019-01-25T20:49:03.869Z,12.6
2019-01-25T20:54:10.432Z,8.8
2019-01-25T20:59:16.280Z,11.4
2019-01-25T21:04:21.446Z,9.9
2019-01-25T21:09:30.177Z,11.3
2019-01-25T21:14:35.332Z,9.1
2019-01-25T21:19:40.836Z,10.7
2019-01-25T21:24:45.888Z,8.6
2019-01-25T21:29:51.639Z,10.2
2019-01-25T21:34:57.658Z,10.3
2019-01-25T21:40:08.417Z,9
2019-01-25T21:45:09.125Z,11.2
2019-01-25T21:50:15.088Z,9.2
2019-01-25T21:55:20.819Z,9.5
2019-01-25T22:00:26.094Z,8.7
2019-01-25T22:05:30.470Z,9.7
2019-01-25T22:10:35.219Z,11.3
2019-01-25T22:15:41.063Z,11
2019-01-25T22:20:44.769Z,10
2019-01-25T22:25:50.251Z,9.8
2019-01-25T22:30:57.345Z,9.9
2019-01-25T22:36:03.000Z,10.6
2019-01-25T22:41:09.496Z,10.6
2019-01-25T22:46:14.621Z,12.3
2019-01-25T22:51:20.761Z,10.5
2019-01-25T22:56:26.141Z,11.7
2019-01-25T23:01:30.957Z,11.7
2019-01-25T23:06:36.882Z,11.3
2019-01-25T23:11:42.936Z,12.7
2019-01-25T23:16:48.469Z,11.7
2019-01-25T23:21:52.838Z,11
2019-01-25T23:26:58.284Z,11.6
2019-01-25T23:32:04.112Z,12.4
2019-01-25T23:37:09.913Z,12.5
2019-01-25T23:42:15.650Z,12.7
2019-01-25T23:47:21.453Z,13.4
2019-01-25T23:52:27.528Z,14
2019-01-25T23:57:33.299Z,13.3
